Meteo Giornale » Osservazioni meteo Italia » Torino-Caselle

ore: 22:50 - Osservazioni Meteo Torino-Caselle
Lat. 45° 13' N Lon. 7° 39' E Alt. 301 metri s.l.m.

molto_nuvoloso Europe/Rome

25 °C

Molto Nuvoloso

Temp. 24 Ore

20 °C

30 °C

Nord/NOvest

9.3 Km/h

Dew point 18 °C

Umidità 65 %

Visibilità  10 Km

Il sole sorge alle ore 05:58

Il sole tramonta alle ore 21:12

Data e Ora Cielo e Fenomeni T °C DP °C Um. % Pres. hPa Vis. km Vento km/h
Oggi h: 22:50 molto_nuvoloso Molto Nuvoloso 25 18 65 1013 10 N/NO 9.3
Oggi h: 22:20 nuvoloso Nuvoloso 25 18 65 1013 10 N/NO 11.1
Oggi h: 21:50 sereno Sereno 27 17 54 1013 10 N 7.4
Oggi h: 21:20 sereno Sereno 27 17 54 1013 10 N 5.5
Oggi h: 20:50 sereno Sereno 28 18 54 1013 10 N 5.5
Oggi h: 20:20 poco_nuvoloso Poco Nuvoloso 28 18 54 1013 10 NE 7.4
Oggi h: 19:50 sereno Sereno 29 18 51 1013 10 NE 9.3
Oggi h: 19:20 sereno Sereno 30 17 45 1013 10 NE 9.3
Oggi h: 18:20 sereno Sereno 30 16 42 1012 10 E 7.4
Oggi h: 17:50 sereno Sereno 30 15 40 1013 10 E/NE 7.4
Oggi h: 17:20 sereno Sereno 30 15 40 1013 10 E 7.4
Oggi h: 16:50 sereno Sereno 30 15 40 1013 10 E/NE 9.3
Oggi h: 16:20 sereno Sereno 30 16 42 1013 10 E 9.3
Oggi h: 15:50 sereno Sereno 30 16 42 1013 10 E 7.4
Oggi h: 15:20 sereno Sereno 30 17 45 1014 10 E/NE 7.4
Oggi h: 14:20 sereno Sereno 30 17 45 1014 10 N 7.4
Oggi h: 13:50 sereno Sereno 29 16 45 1014 10 N 5.5
Oggi h: 13:20 sereno Sereno 29 16 45 1014 10 N 7.4
Oggi h: 12:50 sereno Sereno 29 15 42 1014 10 N 5.5
Oggi h: 12:20 sereno Sereno 28 16 48 1014 10 E 7.4
Oggi h: 11:50 sereno Sereno 28 16 48 1014 10 E/NE 9.3
Oggi h: 11:20 sereno Sereno 27 16 50 1014 10 N 5.5
Oggi h: 10:50 sereno Sereno 27 15 47 1014 10 N 5.5
Oggi h: 10:20 sereno Sereno 26 15 50 1014 10 N 3.7
Oggi h: 09:50 sereno Sereno 26 16 54 1014 10 N 3.7
Oggi h: 09:20 sereno Sereno 25 16 57 1014 10 N 3.7
Oggi h: 08:50 sereno Sereno 25 16 57 1014 10 N 1.8
Oggi h: 08:20 sereno Sereno 22 16 68 1014 10 NE 7.4
Oggi h: 07:50 sereno Sereno 22 17 73 1014 10 N 5.5
Oggi h: 07:20 sereno Sereno 21 16 73 1014 10 N 3.7
Oggi h: 06:20 sereno Sereno 21 16 73 1014 10 O 7.4
Oggi h: 05:50 sereno Sereno 21 16 73 1014 10 O/SO 7.4
Oggi h: 05:20 sereno Sereno 20 16 77 1014 10 N 3.7
Oggi h: 04:50 sereno Sereno 21 15 68 1014 10 N 3.7
Oggi h: 04:20 sereno Sereno 22 15 64 1014 10 N 5.5
Oggi h: 03:50 nuvoloso_temporali Temporale nelle Vicinanze 22 17 73 1014 10 S/SE 7.4
Oggi h: 03:20 nuvoloso_temporali Temporale nelle Vicinanze 21 18 82 1014 10 E 7.4
Oggi h: 02:50 nuvoloso Nuvoloso 23 16 64 1014 10 N 5.5
Oggi h: 02:20 sereno Sereno 23 16 64 1014 10 N 1.8
Oggi h: 01:50 poco_nuvoloso Poco Nuvoloso 23 17 68 1014 10 N 1.8
Oggi h: 01:20 nuvoloso Nuvoloso 22 17 73 1014 10 N 3.7
Oggi h: 00:50 sereno Sereno 22 17 73 1014 10 N 3.7
Oggi h: 00:20 sereno Sereno 25 16 57 1014 10 NO 7.4
Ieri h: 23:50 sereno Sereno 24 16 60 1013 10 N/NO 9.3